createdAt,value
2018-05-18T00:01:48.577Z,101336.66
2018-05-18T00:04:21.759Z,101338.00
2018-05-18T00:06:54.622Z,101326.39
2018-05-18T00:09:27.425Z,101331.22
2018-05-18T00:11:59.633Z,101342.85
2018-05-18T00:14:32.601Z,101332.66
2018-05-18T00:17:05.107Z,101330.30
2018-05-18T00:19:38.860Z,101335.75
2018-05-18T00:22:11.576Z,101336.49
2018-05-18T00:24:45.242Z,101335.16
2018-05-18T00:27:18.571Z,101339.16
2018-05-18T00:29:51.612Z,101334.73
2018-05-18T00:32:24.569Z,101333.98
2018-05-18T00:34:57.573Z,101338.42
2018-05-18T00:37:30.764Z,101343.41
2018-05-18T00:40:04.547Z,101355.02
2018-05-18T00:42:37.578Z,101351.69
2018-05-18T00:45:10.790Z,101351.61
2018-05-18T00:47:43.606Z,101353.12
2018-05-18T00:50:16.591Z,101361.03
2018-05-18T00:52:50.984Z,101349.44
2018-05-18T00:55:33.876Z,101353.86
2018-05-18T00:58:07.840Z,101355.55
2018-05-18T01:00:39.721Z,101356.47
2018-05-18T01:03:13.360Z,101357.63
2018-05-18T01:05:46.398Z,101357.56
2018-05-18T01:08:19.829Z,101360.98
2018-05-18T01:10:52.950Z,101359.64
2018-05-18T01:13:26.448Z,101357.33
2018-05-18T01:15:59.140Z,101360.81
2018-05-18T01:18:32.147Z,101362.14
2018-05-18T01:21:05.126Z,101374.88
2018-05-18T01:23:38.129Z,101381.04
2018-05-18T01:26:11.592Z,101374.29
2018-05-18T01:28:44.551Z,101367.95
2018-05-18T01:31:19.297Z,101377.70
2018-05-18T01:33:52.268Z,101381.72
2018-05-18T01:36:25.660Z,101378.91
2018-05-18T01:38:58.854Z,101376.55
2018-05-18T01:41:32.662Z,101378.41
2018-05-18T01:44:05.734Z,101382.00
2018-05-18T01:46:39.602Z,101384.57
2018-05-18T01:49:12.253Z,101388.68
2018-05-18T01:51:45.403Z,101387.17
2018-05-18T01:54:18.260Z,101392.17
2018-05-18T01:56:51.711Z,101400.54
2018-05-18T01:59:25.138Z,101392.03
2018-05-18T02:01:58.815Z,101399.39
2018-05-18T02:04:33.519Z,101398.55
2018-05-18T02:07:06.877Z,101398.78
2018-05-18T02:09:40.035Z,101404.38
2018-05-18T02:12:13.569Z,101406.14
2018-05-18T02:14:47.059Z,101411.00
2018-05-18T02:17:19.677Z,101416.09
2018-05-18T02:19:52.547Z,101412.22
2018-05-18T02:23:09.822Z,101417.05
2018-05-18T02:25:42.812Z,101420.08
2018-05-18T02:28:16.301Z,101425.42
2018-05-18T02:30:49.286Z,101424.84
2018-05-18T02:33:22.233Z,101424.84
2018-05-18T02:35:55.241Z,101428.91
2018-05-18T02:38:28.819Z,101435.04
2018-05-18T02:41:01.995Z,101439.89
2018-05-18T02:43:35.156Z,101434.13
2018-05-18T02:46:08.998Z,101432.92
2018-05-18T02:48:41.645Z,101433.52
2018-05-18T02:51:14.715Z,101447.44
2018-05-18T02:53:48.874Z,101452.78
2018-05-18T02:56:21.594Z,101451.55
2018-05-18T02:58:54.094Z,101452.39
2018-05-18T03:01:27.124Z,101456.47
2018-05-18T03:04:00.323Z,101462.66
2018-05-18T03:06:33.447Z,101460.48
2018-05-18T03:09:06.151Z,101465.76
2018-05-18T03:11:39.295Z,101468.01
2018-05-18T03:14:12.146Z,101470.68
2018-05-18T03:16:45.447Z,101470.00
2018-05-18T03:19:18.631Z,101473.91
2018-05-18T03:21:51.844Z,101469.05
2018-05-18T03:24:25.037Z,101481.02
2018-05-18T03:26:57.638Z,101480.11
2018-05-18T03:29:30.625Z,101483.92
2018-05-18T03:32:03.552Z,101482.33
2018-05-18T03:34:36.629Z,101490.94
2018-05-18T03:37:09.441Z,101491.86
2018-05-18T03:39:42.762Z,101492.67
2018-05-18T03:42:16.777Z,101491.92
2018-05-18T03:44:49.712Z,101500.36
2018-05-18T03:47:22.883Z,101502.19
2018-05-18T03:49:56.440Z,101501.94
2018-05-18T03:52:29.461Z,101495.51
2018-05-18T03:55:02.172Z,101505.35
2018-05-18T03:57:34.746Z,101504.80
2018-05-18T04:00:07.664Z,101510.14
2018-05-18T04:02:51.767Z,101508.84
2018-05-18T04:05:35.164Z,101507.36
2018-05-18T04:08:19.004Z,101506.25
2018-05-18T04:13:24.347Z,101504.59
2018-05-18T04:18:02.276Z,101505.72
2018-05-18T04:20:35.882Z,101508.66
2018-05-18T04:23:09.635Z,101515.11
2018-05-18T04:25:42.855Z,101508.69
2018-05-18T04:28:15.495Z,101515.48
2018-05-18T04:30:47.633Z,101515.48
2018-05-18T04:33:20.176Z,101513.23
2018-05-18T04:35:53.530Z,101512.65
2018-05-18T04:38:26.396Z,101511.67
2018-05-18T04:40:59.134Z,101511.58
2018-05-18T04:43:31.968Z,101522.61
2018-05-18T04:50:30.648Z,101530.19
2018-05-18T04:53:03.973Z,101526.62
2018-05-18T04:55:37.811Z,101533.98
2018-05-18T04:58:10.207Z,101536.49
2018-05-18T05:00:43.743Z,101531.58
2018-05-18T05:03:16.893Z,101530.23
2018-05-18T05:05:49.680Z,101535.58
2018-05-18T05:08:23.210Z,101535.64
2018-05-18T05:10:55.902Z,101535.41
2018-05-18T05:13:29.921Z,101534.24
2018-05-18T05:16:02.808Z,101537.77
2018-05-18T05:18:36.034Z,101539.03
2018-05-18T05:21:09.901Z,101537.50
2018-05-18T05:23:43.254Z,101540.07
2018-05-18T05:26:16.194Z,101538.83
2018-05-18T05:28:49.958Z,101541.41
2018-05-18T05:32:14.793Z,101537.83
2018-05-18T05:34:47.886Z,101535.34
2018-05-18T05:37:20.583Z,101541.51
2018-05-18T05:39:53.800Z,101536.16
2018-05-18T05:42:27.867Z,101537.08
2018-05-18T05:45:00.863Z,101536.48
2018-05-18T05:47:34.871Z,101536.16
2018-05-18T05:50:08.204Z,101533.33
2018-05-18T05:52:41.686Z,101534.23
2018-05-18T05:55:15.082Z,101540.42
2018-05-18T05:57:48.691Z,101537.23
2018-05-18T06:00:21.994Z,101536.00
2018-05-18T06:02:55.934Z,101531.50
2018-05-18T06:05:28.536Z,101528.40
2018-05-18T06:08:02.053Z,101526.25
2018-05-18T06:10:35.202Z,101517.44
2018-05-18T06:13:08.837Z,101526.16
2018-05-18T06:15:41.680Z,101522.41
2018-05-18T06:18:14.597Z,101521.56
2018-05-18T06:20:47.819Z,101514.88
2018-05-18T06:23:21.496Z,101518.41
2018-05-18T06:25:54.808Z,101513.55
2018-05-18T06:28:28.006Z,101506.80
2018-05-18T06:31:01.164Z,101509.05
2018-05-18T06:33:34.226Z,101507.28
2018-05-18T06:36:07.366Z,101504.69
2018-05-18T06:38:40.823Z,101503.87
2018-05-18T06:41:14.080Z,101503.87
2018-05-18T06:43:47.133Z,101505.63
2018-05-18T06:46:51.749Z,101500.23
2018-05-18T06:49:24.883Z,101496.51
2018-05-18T06:51:58.318Z,101496.51
2018-05-18T06:54:31.737Z,101495.98
2018-05-18T06:57:04.692Z,101499.18
2018-05-18T06:59:37.705Z,101500.42
2018-05-18T07:02:10.213Z,101500.52
2018-05-18T07:04:43.703Z,101502.17
2018-05-18T07:07:16.492Z,101500.52
2018-05-18T07:09:49.210Z,101500.58
2018-05-18T07:12:22.958Z,101501.85
2018-05-18T07:16:32.301Z,101497.84
2018-05-18T07:19:06.230Z,101493.73
2018-05-18T07:21:40.743Z,101496.09
2018-05-18T07:24:16.369Z,101487.55
2018-05-18T07:26:49.988Z,101486.31
2018-05-18T07:29:23.894Z,101485.82
2018-05-18T07:31:56.910Z,101487.22
2018-05-18T07:34:29.722Z,101488.56
2018-05-18T07:37:03.094Z,101478.04
2018-05-18T07:39:36.079Z,101476.34
2018-05-18T07:42:09.514Z,101475.85
2018-05-18T07:44:42.046Z,101479.38
2018-05-18T07:47:14.858Z,101466.14
2018-05-18T07:49:48.412Z,101470.09
2018-05-18T07:52:21.473Z,101464.48
2018-05-18T07:54:54.622Z,101461.33
2018-05-18T07:57:27.887Z,101460.91
2018-05-18T08:00:00.362Z,101451.13
2018-05-18T08:02:33.591Z,101447.78
2018-05-18T08:05:06.374Z,101459.45
2018-05-18T08:07:39.558Z,101451.43
2018-05-18T08:10:13.637Z,101453.19
2018-05-18T08:12:47.047Z,101446.02
2018-05-18T08:15:19.392Z,101443.77
2018-05-18T08:17:52.387Z,101449.61
2018-05-18T08:20:25.730Z,101440.67
2018-05-18T08:22:58.878Z,101433.15
2018-05-18T08:25:31.410Z,101432.23
2018-05-18T08:28:04.179Z,101438.23
2018-05-18T08:30:47.512Z,101434.23
2018-05-18T08:33:20.912Z,101425.37
2018-05-18T08:35:53.685Z,101436.48
2018-05-18T08:38:27.198Z,101436.48
2018-05-18T08:41:00.366Z,101435.20
2018-05-18T08:43:33.511Z,101425.73
2018-05-18T08:46:07.074Z,101426.77
2018-05-18T08:48:40.371Z,101429.02
2018-05-18T08:51:13.413Z,101431.69
2018-05-18T08:53:47.378Z,101432.96
2018-05-18T08:56:20.297Z,101430.78
2018-05-18T08:58:53.652Z,101427.78
2018-05-18T09:01:26.784Z,101419.94
2018-05-18T09:04:00.582Z,101427.43
2018-05-18T09:06:33.449Z,101415.83
2018-05-18T09:09:06.338Z,101418.50
2018-05-18T09:11:39.211Z,101422.19
2018-05-18T09:14:12.602Z,101425.84
2018-05-18T09:16:45.537Z,101428.51
2018-05-18T09:19:18.513Z,101429.09
2018-05-18T09:21:51.308Z,101426.92
2018-05-18T09:24:23.725Z,101427.57
2018-05-18T09:26:57.744Z,101426.98
2018-05-18T09:29:31.763Z,101416.30
2018-05-18T09:32:04.753Z,101411.12
2018-05-18T09:34:36.904Z,101416.21
2018-05-18T09:37:09.691Z,101413.19
2018-05-18T09:39:43.586Z,101415.20
2018-05-18T09:42:16.491Z,101409.95
2018-05-18T09:44:49.667Z,101403.27
2018-05-18T09:47:23.530Z,101396.17
2018-05-18T09:49:56.315Z,101398.59
2018-05-18T09:52:29.491Z,101390.58
2018-05-18T09:55:02.777Z,101392.41
2018-05-18T09:57:36.664Z,101392.05
2018-05-18T10:00:09.446Z,101391.62
2018-05-18T10:02:42.473Z,101396.16
2018-05-18T10:05:15.640Z,101386.38
2018-05-18T10:07:48.620Z,101383.36
2018-05-18T10:10:21.441Z,101380.75
2018-05-18T10:12:54.588Z,101381.47
2018-05-18T10:15:28.047Z,101373.09
2018-05-18T10:18:01.792Z,101368.17
2018-05-18T10:20:35.054Z,101370.36
2018-05-18T10:23:44.006Z,101365.80
2018-05-18T10:26:17.050Z,101363.00
2018-05-18T10:28:50.815Z,101366.77
2018-05-18T10:31:23.939Z,101363.75
2018-05-18T10:33:57.447Z,101358.89
2018-05-18T10:37:01.079Z,101358.80
2018-05-18T10:39:34.630Z,101359.63
2018-05-18T10:42:07.100Z,101358.38
2018-05-18T10:44:40.401Z,101365.06
2018-05-18T10:47:13.414Z,101358.38
2018-05-18T10:49:46.086Z,101357.96
2018-05-18T10:52:19.639Z,101354.45
2018-05-18T10:54:53.638Z,101355.03
2018-05-18T10:57:26.332Z,101354.87
2018-05-18T10:59:59.078Z,101358.03
2018-05-18T11:02:32.825Z,101360.80
2018-05-18T11:05:05.613Z,101363.12
2018-05-18T11:07:39.249Z,101366.44
2018-05-18T11:10:12.889Z,101374.71
2018-05-18T11:12:45.422Z,101376.54
2018-05-18T11:15:18.344Z,101371.30
2018-05-18T11:17:51.570Z,101376.54
2018-05-18T11:20:25.643Z,101373.97
2018-05-18T11:22:58.922Z,101374.20
2018-05-18T11:25:31.591Z,101379.05
2018-05-18T11:28:04.730Z,101381.30
2018-05-18T11:30:37.134Z,101384.03
2018-05-18T11:33:10.114Z,101380.95
2018-05-18T11:35:43.575Z,101376.94
2018-05-18T11:38:17.549Z,101366.19
2018-05-18T11:40:50.714Z,101372.86
2018-05-18T11:43:24.662Z,101376.94
2018-05-18T11:45:58.710Z,101373.78
2018-05-18T11:48:31.157Z,101377.78
2018-05-18T11:51:04.452Z,101378.86
2018-05-18T11:53:37.718Z,101382.94
2018-05-18T11:56:11.699Z,101380.27
2018-05-18T11:58:44.738Z,101379.67
2018-05-18T12:01:17.971Z,101386.03
2018-05-18T12:03:51.422Z,101382.77
2018-05-18T12:06:25.586Z,101379.19
2018-05-18T12:08:58.724Z,101380.69
2018-05-18T12:11:32.353Z,101383.10
2018-05-18T12:14:05.609Z,101387.59
2018-05-18T12:16:39.267Z,101383.17
2018-05-18T12:19:12.514Z,101383.95
2018-05-18T12:21:45.249Z,101380.43
2018-05-18T12:24:18.634Z,101376.91
2018-05-18T12:26:51.432Z,101387.59
2018-05-18T12:29:24.670Z,101384.18
2018-05-18T12:31:57.359Z,101386.98
2018-05-18T12:34:29.761Z,101386.23
2018-05-18T12:37:03.455Z,101392.55
2018-05-18T12:39:37.763Z,101395.33
2018-05-18T12:42:10.283Z,101391.64
2018-05-18T12:44:43.842Z,101390.80
2018-05-18T12:47:17.637Z,101390.31
2018-05-18T12:49:50.807Z,101384.55
2018-05-18T12:53:46.576Z,101384.22
2018-05-18T12:56:19.188Z,101382.04
2018-05-18T12:58:52.584Z,101381.20
2018-05-18T13:01:25.166Z,101376.45
2018-05-18T13:03:58.442Z,101378.10
2018-05-18T13:06:31.735Z,101370.61
2018-05-18T13:09:04.443Z,101377.29
2018-05-18T13:11:37.476Z,101382.27
2018-05-18T13:14:11.371Z,101372.19
2018-05-18T13:16:44.639Z,101378.69
2018-05-18T13:19:17.654Z,101376.19
2018-05-18T13:21:51.601Z,101381.59
2018-05-18T13:24:24.448Z,101376.09
2018-05-18T13:26:57.642Z,101380.68
2018-05-18T13:29:30.834Z,101380.19
2018-05-18T13:32:04.615Z,101386.77
2018-05-18T13:34:38.039Z,101390.70
2018-05-18T13:37:11.387Z,101389.02
2018-05-18T13:39:44.836Z,101389.53
2018-05-18T13:42:18.784Z,101401.27
2018-05-18T13:44:52.745Z,101402.70
2018-05-18T13:47:26.630Z,101404.84
2018-05-18T13:49:59.457Z,101404.52
2018-05-18T13:52:32.015Z,101403.19
2018-05-18T13:55:04.999Z,101398.69
2018-05-18T13:57:37.800Z,101403.61
2018-05-18T14:00:10.590Z,101401.42
2018-05-18T14:02:43.496Z,101395.73
2018-05-18T14:05:16.766Z,101407.36
2018-05-18T14:07:49.552Z,101408.10
2018-05-18T14:10:22.734Z,101411.26
2018-05-18T14:12:55.763Z,101415.75
2018-05-18T14:15:28.710Z,101411.26
2018-05-18T14:18:02.128Z,101410.77
2018-05-18T14:20:35.708Z,101402.77
2018-05-18T14:23:07.548Z,101403.25
2018-05-18T14:25:40.486Z,101405.01
2018-05-18T14:28:13.820Z,101407.25
2018-05-18T14:30:47.492Z,101402.92
2018-05-18T14:33:20.610Z,101410.41
2018-05-18T14:35:53.481Z,101414.09
2018-05-18T14:38:26.621Z,101415.85
2018-05-18T14:40:59.811Z,101412.34
2018-05-18T14:43:33.303Z,101409.08
2018-05-18T14:46:05.787Z,101405.50
2018-05-18T14:48:37.337Z,101417.09
2018-05-18T14:51:10.495Z,101424.19
2018-05-18T14:53:43.708Z,101424.70
2018-05-18T14:56:16.477Z,101432.12
2018-05-18T14:58:49.116Z,101432.62
2018-05-18T15:01:22.615Z,101429.52
2018-05-18T15:03:56.913Z,101426.37
2018-05-18T15:06:30.036Z,101420.60
2018-05-18T15:09:03.699Z,101413.51
2018-05-18T15:11:36.863Z,101417.51
2018-05-18T15:14:10.134Z,101420.70
2018-05-18T15:16:43.745Z,101419.44
2018-05-18T15:19:16.329Z,101430.17
2018-05-18T15:21:50.089Z,101431.67
2018-05-18T15:24:23.501Z,101440.80
2018-05-18T15:26:56.866Z,101432.10
2018-05-18T15:29:29.627Z,101429.59
2018-05-18T15:32:02.839Z,101434.09
2018-05-18T15:34:35.489Z,101430.67
2018-05-18T15:37:09.024Z,101438.91
2018-05-18T15:39:41.771Z,101444.86
2018-05-18T15:42:13.737Z,101436.05
2018-05-18T15:44:47.618Z,101440.17
2018-05-18T15:47:21.311Z,101439.00
2018-05-18T15:49:54.282Z,101440.08
2018-05-18T15:52:27.317Z,101442.91
2018-05-18T15:55:00.023Z,101435.39
2018-05-18T15:57:33.735Z,101432.72
2018-05-18T16:00:06.732Z,101441.38
2018-05-18T16:02:40.511Z,101445.38
2018-05-18T16:05:14.163Z,101461.95
2018-05-18T16:07:47.039Z,101457.95
2018-05-18T16:10:20.730Z,101457.69
2018-05-18T16:12:53.949Z,101454.75
2018-05-18T16:15:26.636Z,101452.15
2018-05-18T16:18:00.425Z,101455.14
2018-05-18T16:20:33.641Z,101454.30
2018-05-18T16:23:07.551Z,101456.34
2018-05-18T16:25:40.162Z,101457.67
2018-05-18T16:28:13.933Z,101460.02
2018-05-18T16:30:47.696Z,101452.50
2018-05-18T16:33:20.379Z,101454.81
2018-05-18T16:35:53.039Z,101461.97
2018-05-18T16:38:26.866Z,101468.64
2018-05-18T16:40:59.515Z,101459.03
2018-05-18T16:43:32.446Z,101462.55
2018-05-18T16:46:05.638Z,101460.47
2018-05-18T16:48:38.210Z,101459.95
2018-05-18T16:51:11.507Z,101457.70
2018-05-18T16:53:44.452Z,101454.61
2018-05-18T16:56:17.623Z,101448.95
2018-05-18T16:58:50.649Z,101445.79
2018-05-18T17:01:23.051Z,101442.83
2018-05-18T17:03:56.743Z,101446.34
2018-05-18T17:06:30.272Z,101447.25
2018-05-18T17:09:03.939Z,101450.93
2018-05-18T17:11:37.513Z,101448.52
2018-05-18T17:14:10.557Z,101445.01
2018-05-18T17:16:44.145Z,101437.85
2018-05-18T17:19:17.453Z,101434.11
2018-05-18T17:21:50.230Z,101436.30
2018-05-18T17:24:23.368Z,101428.72
2018-05-18T17:26:56.646Z,101422.04
2018-05-18T17:29:29.532Z,101432.30
2018-05-18T17:32:02.672Z,101432.30
2018-05-18T17:34:35.842Z,101433.14
2018-05-18T17:37:09.657Z,101437.34
2018-05-18T17:39:42.370Z,101438.73
2018-05-18T17:42:15.395Z,101436.00
2018-05-18T17:44:48.782Z,101441.24
2018-05-18T17:47:22.068Z,101441.34
2018-05-18T17:49:55.833Z,101436.75
2018-05-18T17:52:28.824Z,101437.92
2018-05-18T17:55:01.614Z,101440.17
2018-05-18T17:57:35.006Z,101434.77
2018-05-18T18:00:09.019Z,101438.77
2018-05-18T18:02:42.189Z,101437.37
2018-05-18T18:05:15.389Z,101431.61
2018-05-18T18:07:48.628Z,101430.70
2018-05-18T18:10:22.824Z,101435.19
2018-05-18T18:12:56.080Z,101424.84
2018-05-18T18:15:29.871Z,101421.36
2018-05-18T18:18:03.667Z,101424.36
2018-05-18T18:20:36.749Z,101423.02
2018-05-18T18:24:13.589Z,101427.13
2018-05-18T18:26:46.824Z,101416.71
2018-05-18T18:29:19.873Z,101411.38
2018-05-18T18:34:05.632Z,101401.32
2018-05-18T18:36:38.414Z,101410.56
2018-05-18T18:39:11.392Z,101405.16
2018-05-18T18:41:44.880Z,101400.73
2018-05-18T18:44:17.459Z,101399.05
2018-05-18T18:46:50.099Z,101402.98
2018-05-18T18:49:23.702Z,101395.23
2018-05-18T18:51:56.909Z,101395.23
2018-05-18T18:54:30.467Z,101394.55
2018-05-18T18:57:03.393Z,101394.32
2018-05-18T18:59:35.798Z,101389.34
2018-05-18T19:02:08.850Z,101388.07
2018-05-18T19:04:42.539Z,101389.34
2018-05-18T19:07:16.076Z,101380.33
2018-05-18T19:09:49.074Z,101375.90
2018-05-18T19:12:22.088Z,101377.75
2018-05-18T19:14:55.850Z,101370.43
2018-05-18T19:17:29.073Z,101364.73
2018-05-18T19:20:02.083Z,101363.83
2018-05-18T19:22:35.788Z,101365.58
2018-05-18T19:25:08.689Z,101368.19
2018-05-18T19:27:41.554Z,101367.24
2018-05-18T19:30:14.784Z,101365.42
2018-05-18T19:32:47.483Z,101359.00
2018-05-18T19:35:20.683Z,101355.42
2018-05-18T19:37:53.556Z,101347.42
2018-05-18T19:40:26.147Z,101345.59
2018-05-18T19:42:59.111Z,101339.84
2018-05-18T19:45:32.214Z,101343.77
2018-05-18T19:48:05.373Z,101347.42
2018-05-18T19:50:38.697Z,101343.41
2018-05-18T19:53:12.076Z,101347.77
2018-05-18T19:55:43.790Z,101340.61
2018-05-18T19:58:16.684Z,101339.28
2018-05-18T20:00:49.850Z,101331.27
2018-05-18T20:03:23.686Z,101331.41
2018-05-18T20:05:56.691Z,101339.60
2018-05-18T20:08:29.592Z,101330.75
2018-05-18T20:11:03.377Z,101330.33
2018-05-18T20:13:35.843Z,101332.86
2018-05-18T20:16:07.917Z,101322.25
2018-05-18T20:18:41.414Z,101319.09
2018-05-18T20:21:14.141Z,101322.02
2018-05-18T20:23:47.740Z,101321.11
2018-05-18T20:26:21.885Z,101318.44
2018-05-18T20:28:55.334Z,101323.71
2018-05-18T20:31:28.938Z,101318.20
2018-05-18T20:36:02.965Z,101313.55
2018-05-18T20:41:15.703Z,101307.83
2018-05-18T20:43:48.617Z,101303.88
2018-05-18T20:46:21.842Z,101305.61
2018-05-18T20:48:55.881Z,101308.40
2018-05-18T20:51:28.692Z,101307.98
2018-05-18T20:54:02.885Z,101302.15
2018-05-18T20:58:13.828Z,101304.45
2018-05-18T21:00:47.648Z,101306.23
2018-05-18T21:03:20.915Z,101297.54
2018-05-18T21:05:54.718Z,101296.14
2018-05-18T21:08:27.663Z,101292.56
2018-05-18T21:11:00.995Z,101289.72
2018-05-18T21:13:34.126Z,101292.81
2018-05-18T21:16:07.962Z,101291.80
2018-05-18T21:18:40.592Z,101291.37
2018-05-18T21:21:13.952Z,101291.80
2018-05-18T21:23:47.426Z,101293.66
2018-05-18T21:26:20.911Z,101297.07
2018-05-18T21:28:54.591Z,101293.13
2018-05-18T21:31:27.585Z,101288.15
2018-05-18T21:34:00.439Z,101295.56
2018-05-18T21:36:33.989Z,101291.14
2018-05-18T21:39:06.848Z,101286.58
2018-05-18T21:41:39.828Z,101294.42
2018-05-18T21:44:13.346Z,101302.85
2018-05-18T21:46:45.014Z,101296.92
2018-05-18T21:49:18.824Z,101305.03
2018-05-18T21:51:52.720Z,101295.94
2018-05-18T21:54:25.648Z,101292.29
2018-05-18T21:56:58.584Z,101288.29
2018-05-18T21:59:31.649Z,101286.43
2018-05-18T22:02:04.816Z,101288.05
2018-05-18T22:04:37.639Z,101275.87
2018-05-18T22:07:09.834Z,101280.78
2018-05-18T22:09:43.651Z,101283.63
2018-05-18T22:12:16.629Z,101275.94
2018-05-18T22:14:49.958Z,101269.02
2018-05-18T22:17:22.739Z,101277.95
2018-05-18T22:19:55.930Z,101289.47
2018-05-18T22:22:29.144Z,101267.62
2018-05-18T22:25:01.362Z,101272.30
2018-05-18T22:27:34.891Z,101265.69
2018-05-18T22:30:08.129Z,101267.80
2018-05-18T22:33:53.987Z,101271.28
2018-05-18T22:36:25.467Z,101273.81
2018-05-18T22:38:58.937Z,101268.73
2018-05-18T22:41:32.744Z,101268.56
2018-05-18T22:44:05.943Z,101271.66
2018-05-18T22:46:38.742Z,101270.57
2018-05-18T22:49:11.617Z,101270.15
2018-05-18T22:51:44.527Z,101266.73
2018-05-18T22:54:17.880Z,101261.33
2018-05-18T22:58:37.952Z,101259.39
2018-05-18T23:01:39.458Z,101261.56
2018-05-18T23:04:12.508Z,101253.80
2018-05-18T23:06:45.798Z,101255.56
2018-05-18T23:09:18.655Z,101240.28
2018-05-18T23:11:51.617Z,101244.77
2018-05-18T23:14:24.448Z,101239.79
2018-05-18T23:16:57.443Z,101236.20
2018-05-18T23:19:30.941Z,101230.02
2018-05-18T23:22:04.919Z,101229.70
2018-05-18T23:24:37.384Z,101232.69
2018-05-18T23:27:10.154Z,101237.72
2018-05-18T23:29:43.172Z,101230.44
2018-05-18T23:32:16.930Z,101239.30
2018-05-18T23:34:50.941Z,101233.78
2018-05-18T23:37:23.932Z,101239.80
2018-05-18T23:39:57.941Z,101240.16
2018-05-18T23:42:31.140Z,101250.24
2018-05-18T23:45:04.791Z,101248.25
2018-05-18T23:47:38.955Z,101251.51
2018-05-18T23:50:11.751Z,101247.99
2018-05-18T23:52:45.172Z,101249.69
2018-05-18T23:55:18.306Z,101245.67
2018-05-18T23:57:51.924Z,101250.08
